Terminal Aerodrome Forecast
Issued by NWS

Home | Current Version | Previous Version | Text Only | Print | Product List | Glossary On
Versions: 1 2 3 4 5 6 7 8 9 10 11 12 13 14 15 16 17 18 19 20
000
FTUS45 KGJT 030324 AAC
TAFRIL
TAF AMD
KRIL 030324Z 0303/0324 26005KT P6SM BKN070
      TEMPO 0303/0304 2SM -SN BKN020
     FM031900 30006KT P6SM SCT120=

USA.gov is the U.S. government's official web portal to all federal, state and local government web resources and services.